logo
App data

MASSIVE CHALICE

MASSIVE CHALICE is a tactical strategy game set on an epic timeline from Double Fine Productions. As the Immortal Ruler of the nation, you'll take command of its heroes, forge heroic marriages to strengthen your Bloodlines, and battle a mysterious enemy known as the Cadence in a 300 year war.
Store | Hub | SteamDB | Site
Developer: Double Fine Productions Publisher: Double Fine Productions
Genre: Indie, Strategy
Languages: English, French, Italian, German, Spanish - Spain
Tags: Strategy (79), Turn-Based (54), Turn-Based Tactics (48), Tactical (42), Fantasy (40), Indie (40), Singleplayer (29), RPG (24), Kickstarter (17), Management (12), Tactical RPG (11), Turn-Based Strategy (10), Perma Death (9), Rogue-like (5)
Category: Single-player, Steam Achievements, Full controller support, Steam Trading Cards, Captions available, Steam Cloud
Release date: Jun 1, 2015 (previously in Early Access)
Price: $19.99
Old userscore: 72% Metascore: 73%
Owners: 100,000 .. 200,000
Followers: 20,801
Peak concurrent players yesterday: 9
YouTube stats: 5 views and 0 comments for top 50 videos uploaded last week, 0 new videos uploaded yesterday.
Playtime total: 03:27 (average) 05:30 (median)

Steam Spy is still in beta, so expect major bugs.

Owners data:

Access restricted.

This feature is only available to users with special access rights. Sorry.

If you want to proceed, you need to register or log in first and then back Steam Spy on Patreon. Look for Indie or Pro pledge.

Don't forget to use the same email as on Steam Spy!

If you've recently backed Steam Spy on Patreon, please note, that it might take around 15 minutes for your access rights to sync. In most cases you'll need to re-login on Steam Spy too.

Audience in 2 weeks:

Access restricted.

This feature is only available to users with special access rights. Sorry.

If you want to proceed, you need to register or log in first and then back Steam Spy on Patreon. Look for Indie or Pro pledge.

Don't forget to use the same email as on Steam Spy!

If you've recently backed Steam Spy on Patreon, please note, that it might take around 15 minutes for your access rights to sync. In most cases you'll need to re-login on Steam Spy too.

Peak daily concurrent players:

CCU data courtesy of SteamDB. Used with permission.

Hourly concurrent players:

Daily Twitch stats:

Hourly Twitch stats:

Followers over time

Access restricted.

This feature is only available to users with special access rights. Sorry.

If you want to proceed, you need to register or log in first and then back Steam Spy on Patreon. Look for Indie or Pro pledge.

Don't forget to use the same email as on Steam Spy!

If you've recently backed Steam Spy on Patreon, please note, that it might take around 15 minutes for your access rights to sync. In most cases you'll need to re-login on Steam Spy too.

Views for top 50 videos on YouTube for this game:

Games similar to this one:

# Game Release date
Price
Score rank
(Userscore / Metascore)
Owners
Players
Playtime (Median)
1 Deponia: The Complete Journey Jul 8, 2014 $29.99N/A (N/A)1,000,000 .. 2,000,0000%00:00 (00:00)
2 Hegemony III: Clash of the Ancients Aug 25, 2015 $29.99N/A (N/A)20,000 .. 50,0000%00:00 (00:00)
3 Renowned Explorers: International Society Sep 2, 2015 $19.99N/A (N/A)200,000 .. 500,0000%00:00 (00:00)
4 Grand Ages: Medieval Sep 25, 2015 $9.99N/A (N/A/63%)100,000 .. 200,0000%00:00 (00:00)
5 Heroes of Might & Magic III - HD Edition Jan 29, 2015 $14.99N/A (N/A/65%)1,000,000 .. 2,000,0002.86%00:50 (00:16)
6 Crookz - The Big Heist Aug 25, 2015 $9.99N/A (N/A/74%)20,000 .. 50,0000%00:00 (00:00)
7 Master of Orion Feb 26, 2016 $24.99N/A (N/A/74%)500,000 .. 1,000,0000%00:00 (00:00)
8 LEGO Pirates of the Caribbean: The Video Game May 24, 2011 $19.99N/A (N/A)100,000 .. 200,0000%00:00 (00:00)
9 GALAK-Z Oct 29, 2015 $19.99N/A (N/A/78%)100,000 .. 200,0000%00:00 (00:00)
10 Super Trench Attack! Jul 24, 2014 $4.99N/A (N/A)50,000 .. 100,0000%00:00 (00:00)
11 Saints Row: Gat out of Hell Jan 20, 2015 $14.99N/A (N/A/66%)500,000 .. 1,000,0002.08%00:13 (00:04)
12 Warhammer 40,000: Armageddon Nov 26, 2014 $39.99N/A (N/A/68%)50,000 .. 100,0000%00:00 (00:00)
13 Ultimate General: Gettysburg Oct 16, 2014 $14.99N/A (N/A/84%)200,000 .. 500,0000%00:00 (00:00)
14 Way of the Samurai 4 Jul 23, 2015 $24.99N/A (N/A/72%)100,000 .. 200,0000%00:00 (00:00)
15 Obduction Aug 24, 2016 $29.99N/A (N/A/76%)200,000 .. 500,0000%00:00 (00:00)
16 Blitzkrieg Anthology Mar 28, 2003 $4.99N/A (N/A)200,000 .. 500,0000%00:00 (00:00)
17 Nux Aug 15, 2014 $6.99N/A (N/A)100,000 .. 200,0000%00:00 (00:00)
18 Jagged Alliance - Back in Action Feb 8, 2012 $19.99N/A (N/A/62%)200,000 .. 500,0000%00:00 (00:00)
19 Alan Wake Feb 16, 2012 $14.99N/A (N/A/83%)200,000 .. 500,0000%00:00 (00:00)
20 Wargame: European Escalation Feb 22, 2012 $9.99N/A (N/A/81%)200,000 .. 500,0000%00:00 (00:00)
21 Crysis 2 - Maximum Edition Mar 22, 2011 $7.49N/A (N/A)1,000,000 .. 2,000,0000%00:00 (00:00)
22 Might & Magic: Clash of Heroes Sep 22, 2011 $9.99N/A (N/A/76%)100,000 .. 200,0000%00:00 (00:00)
23 Prototype 2 Jul 24, 2012 $39.99N/A (N/A/76%)500,000 .. 1,000,0000%00:00 (00:00)
24 Men of War: Assault Squad Feb 24, 2011 $9.99N/A (N/A/77%)500,000 .. 1,000,0000%00:00 (00:00)
25 Worms Revolution Oct 10, 2012 $14.99N/A (N/A/73%)1,000,000 .. 2,000,0001.15%00:59 (00:19)
26 Sid Meier's Civilization: Beyond Earth Oct 23, 2014 $39.99N/A (N/A/81%)1,000,000 .. 2,000,0000%00:00 (00:00)
27 Batman: Arkham City - Game of the Year Edition Sep 7, 2012 $19.99N/A (N/A/91%)2,000,000 .. 5,000,0000%00:00 (00:00)
28 Majesty 2 Collection Apr 19, 2011 N/AN/A (N/A)200,000 .. 500,0000%00:00 (00:00)
29 Sins of a Solar Empire: Trinity Nov 16, 2011 $19.99N/A (N/A/87%)100,000 .. 200,0000%00:00 (00:00)
30 Darkest Hour: A Hearts of Iron Game Apr 8, 2011 $9.99N/A (N/A/81%)200,000 .. 500,0000%00:00 (00:00)
31 Galactic Civilizations II: Ultimate Edition Apr 30, 2008 $19.99N/A (N/A/92%)500,000 .. 1,000,0000%00:00 (00:00)
32 DETOUR May 16, 2011 $1.99N/A (N/A)200,000 .. 500,0000%00:00 (00:00)
33 Call of Duty: Black Ops II Nov 12, 2012 $59.99N/A (N/A/74%)2,000,000 .. 5,000,0000%00:00 (00:00)
34 Age of Empires III (2007) Sep 15, 2009 $39.99N/A (N/A/81%)2,000,000 .. 5,000,0001.2%00:01 (00:00)
35 Blitzkrieg 2 Anthology Sep 23, 2005 $4.99N/A (N/A/75%)200,000 .. 500,0000%00:00 (00:00)
36 Total War: ATTILA Feb 17, 2015 $44.99N/A (N/A/80%)1,000,000 .. 2,000,0002.22%00:53 (00:17)
37 Rampage Knights Sep 4, 2015 $11.99N/A (N/A/80%)200,000 .. 500,0003.33%00:11 (00:03)
38 Worms W.M.D Aug 23, 2016 $29.99N/A (N/A/79%)500,000 .. 1,000,0000%00:00 (00:00)
39 Act of Aggression - Reboot Edition Sep 2, 2015 $29.99N/A (N/A/71%)100,000 .. 200,0000%00:00 (00:00)
40 Devil May Cry 4 Special Edition Jun 23, 2015 $24.99N/A (N/A)500,000 .. 1,000,0002.44%13:28 (04:29)
41 Convoy Apr 21, 2015 $14.99N/A (N/A/72%)100,000 .. 200,0000%00:00 (00:00)
42 Gems of War - Puzzle RPG Nov 20, 2014 FreeN/A (N/A)500,000 .. 1,000,0000%00:00 (00:00)
43 Gold Rush! Anniversary Nov 7, 2014 $5.99N/A (N/A)50,000 .. 100,0000%00:00 (00:00)
44 Cossacks 3 Sep 20, 2016 $19.99N/A (N/A)1,000,000 .. 2,000,0006.25%01:40 (00:33)
45 Trine 3: The Artifacts of Power Aug 20, 2015 $21.99N/A (N/A)500,000 .. 1,000,0000%00:00 (00:00)
46 Town of Salem Dec 15, 2014 $4.99N/A (N/A)1,000,000 .. 2,000,0001.72%01:06 (00:22)
47 Might & Magic Heroes VII Sep 29, 2015 $29.99N/A (N/A)200,000 .. 500,0000%00:00 (00:00)
48 Runestone Keeper Mar 2, 2015 $9.99N/A (N/A)200,000 .. 500,0000%00:00 (00:00)
49 SteamWorld Heist Jun 7, 2016 $14.99N/A (N/A/81%)500,000 .. 1,000,0000%00:00 (00:00)
50 Lux Delux May 1, 2015 $9.99N/A (N/A)50,000 .. 100,0000%00:00 (00:00)
51 Shadow Warrior 2 Oct 13, 2016 $39.99N/A (N/A/78%)500,000 .. 1,000,0002.33%07:31 (02:30)
52 Tomb Raider Mar 4, 2013 $14.99N/A (N/A/86%)5,000,000 .. 10,000,0000.61%00:52 (01:06)
53 Sonic Adventure 2 Nov 19, 2012 $9.99N/A (N/A)500,000 .. 1,000,0000%00:00 (00:00)
54 Warlock - Master of the Arcane May 8, 2012 $24.99N/A (N/A/71%)500,000 .. 1,000,0000%00:00 (00:00)
55 Deponia Aug 6, 2012 $9.99N/A (N/A/74%)1,000,000 .. 2,000,0000%00:00 (00:00)
56 Max Payne 3 May 31, 2012 $19.99N/A (N/A/87%)1,000,000 .. 2,000,0001.94%02:07 (01:24)
57 Total War: ROME II - Emperor Edition Sep 2, 2013 $59.99N/A (N/A/76%)2,000,000 .. 5,000,0004.17%06:11 (06:07)
58 Sins of a Solar Empire: Rebellion Jun 12, 2012 $39.99N/A (N/A/82%)2,000,000 .. 5,000,0000.7%01:51 (00:51)
59 Jagged Alliance 2 - Wildfire Mar 8, 2004 $6.99N/A (N/A)500,000 .. 1,000,0001.37%06:45 (02:15)
60 Endless Space - Collection Jul 4, 2012 $9.99N/A (N/A/77%)1,000,000 .. 2,000,0000%00:00 (00:00)
61 DmC: Devil May Cry Jan 24, 2013 $29.99N/A (N/A/85%)1,000,000 .. 2,000,0000%00:00 (00:00)
62 Assassin’s Creed III Nov 20, 2012 N/AN/A (N/A/80%)1,000,000 .. 2,000,0000%00:00 (00:00)
63 Chaos on Deponia Nov 6, 2012 $19.99N/A (N/A/78%)200,000 .. 500,0000%00:00 (00:00)
64 Batman: Arkham Origins Oct 24, 2013 $19.99N/A (N/A/74%)2,000,000 .. 5,000,0000.75%00:47 (00:15)
65 Resident Evil 6 Mar 22, 2013 $29.99N/A (N/A/69%)1,000,000 .. 2,000,0001.04%02:17 (00:45)
66 Resident Evil: Operation Raccoon City May 18, 2012 $29.99N/A (N/A/48%)200,000 .. 500,0000%00:00 (00:00)
67 Age of Empires II (2013) Apr 9, 2013 $19.99N/A (N/A/68%)5,000,000 .. 10,000,0000.55%01:18 (00:26)
68 Tom Clancy's Ghost Recon: Future Soldier Jun 26, 2012 $6.24N/A (N/A/71%)200,000 .. 500,0000%00:00 (00:00)
69 Cradle Jul 24, 2015 $12.99N/A (N/A/65%)50,000 .. 100,0000%00:00 (00:00)
70 Particula Feb 2, 2015 $0.49N/A (N/A)500,000 .. 1,000,0000%00:00 (00:00)
71 Battlefleet Gothic: Armada Apr 21, 2016 $19.99N/A (N/A/77%)200,000 .. 500,0000%00:00 (00:00)
72 Sun Blast: Star Fighter Apr 2, 2015 $0.49N/A (N/A)100,000 .. 200,0000%00:00 (00:00)
73 Total War: WARHAMMER May 24, 2016 $59.99N/A (N/A/86%)1,000,000 .. 2,000,0000%00:00 (00:00)
74 Agent Awesome Feb 17, 2015 $1.99N/A (N/A)200,000 .. 500,0000%00:00 (00:00)
75 Battle Brothers Mar 24, 2017 $29.99N/A (N/A/80%)500,000 .. 1,000,00012.5%00:02 (00:00)
76 Wolfenstein: The Old Blood May 4, 2015 $19.99N/A (N/A/76%)500,000 .. 1,000,0000%00:00 (00:00)
77 The Long Journey Home May 30, 2017 $2.99N/A (N/A/68%)20,000 .. 50,0000%00:00 (00:00)
78 The Silent Age May 29, 2015 $9.99N/A (N/A)200,000 .. 500,0000%00:00 (00:00)
79 Halcyon 6: Starbase Commander Sep 8, 2016 $14.99N/A (N/A/71%)100,000 .. 200,0000%00:00 (00:00)
80 Urban Empire Jan 20, 2017 $29.99N/A (N/A/62%)100,000 .. 200,0000%00:00 (00:00)
81 Tap Heroes Jun 5, 2015 $2.99N/A (N/A)200,000 .. 500,0000%00:00 (00:00)
82 Space Run Galaxy Jun 17, 2016 $14.99N/A (N/A/75%)100,000 .. 200,0000%00:00 (00:00)
83 Portal Knights May 18, 2017 $19.99N/A (N/A/72%)500,000 .. 1,000,0001.39%01:29 (00:29)
84 Curious Expedition Sep 2, 2016 $14.99N/A (N/A)200,000 .. 500,0007.69%22:23 (07:27)
85 Defend The Highlands Nov 6, 2015 $9.99N/A (N/A)200,000 .. 500,0000%00:00 (00:00)
86 Resident Evil Revelations May 20, 2013 $29.99N/A (N/A/77%)500,000 .. 1,000,0000%00:00 (00:00)
87 Stronghold Crusader 2 Sep 22, 2014 $39.99N/A (N/A/65%)1,000,000 .. 2,000,0000%00:00 (00:00)
88 Wargame: Airland Battle May 29, 2013 $19.99N/A (N/A/80%)200,000 .. 500,0000%00:00 (00:00)
89 Shadow Warrior Sep 26, 2013 $39.99N/A (N/A/73%)2,000,000 .. 5,000,0000%00:00 (00:00)
90 Xenonauts Jun 16, 2014 $24.99N/A (N/A/77%)200,000 .. 500,0000%00:00 (00:00)
91 Mad Max Sep 1, 2015 $19.99N/A (N/A/73%)2,000,000 .. 5,000,0000.93%00:21 (00:07)
92 Ace of Spades: Battle Builder N/AN/A (N/A)1,000,000 .. 2,000,0000%00:00 (00:00)
93 Blitzkrieg 3 Jun 2, 2017 $9.99N/A (N/A/68%)100,000 .. 200,0000%00:00 (00:00)
94 Brutal Legend Feb 26, 2013 $14.99N/A (N/A/80%)2,000,000 .. 5,000,0000.65%00:13 (00:04)
95 Warhammer: End Times - Vermintide Oct 23, 2015 $7.49N/A (N/A/79%)1,000,000 .. 2,000,0000%00:00 (00:00)
96 Age of Wonders III Mar 31, 2014 $29.99N/A (N/A/80%)1,000,000 .. 2,000,0000%00:00 (00:00)
97 Dust: An Elysian Tail May 24, 2013 $14.99N/A (N/A)1,000,000 .. 2,000,0000%00:00 (00:00)
98 Galactic Civilizations III May 14, 2015 $39.99N/A (N/A/81%)500,000 .. 1,000,0000%00:00 (00:00)
99 Blood Bowl 2 Sep 22, 2015 $19.99N/A (N/A/76%)500,000 .. 1,000,0000%00:00 (00:00)
100 Skulls of the Shogun Jul 29, 2013 $9.99N/A (N/A/72%)100,000 .. 200,0000%00:00 (00:00)
101 Dreamfall Chapters Jul 21, 2017 $24.99N/A (N/A/71%)50,000 .. 100,0000%00:00 (00:00)
102 Company of Heroes 2 Jun 25, 2013 $19.99N/A (N/A/80%)5,000,000 .. 10,000,0001.39%04:59 (06:30)
103 Star Trek Online Feb 2, 2010 FreeN/A (N/A/66%)1,000,000 .. 2,000,0002.94%01:39 (01:05)
104 Counter-Strike Nov 1, 2000 $9.99N/A (N/A/88%)10,000,000 .. 20,000,0001.35%09:29 (05:00)
105 Prototype Jun 10, 2009 $19.99N/A (N/A/79%)500,000 .. 1,000,0000%00:00 (00:00)
106 Counter-Strike: Source Nov 1, 2004 $9.99N/A (N/A/88%)10,000,000 .. 20,000,0001.18%05:45 (07:07)
107 Call of Duty: Modern Warfare 2 Nov 12, 2009 $19.99N/A (N/A/86%)5,000,000 .. 10,000,0002.26%01:48 (01:47)
108 Call of Duty 2 Oct 25, 2005 $19.99N/A (N/A/86%)1,000,000 .. 2,000,0000%00:00 (00:00)
109 Total War: EMPIRE – Definitive Edition Mar 4, 2009 $24.99N/A (N/A/90%)2,000,000 .. 5,000,0001.19%00:25 (00:08)
110 Company of Heroes - Legacy Edition Sep 11, 2006 $19.99N/A (N/A/93%)2,000,000 .. 5,000,0000%00:00 (00:00)
111 Tom Clancy's Rainbow Six Vegas 2 Apr 16, 2008 $9.99N/A (N/A/78%)500,000 .. 1,000,0000%00:00 (00:00)
112 Warhammer 40,000: Dawn of War - Dark Crusade Oct 9, 2006 $12.99N/A (N/A/87%)1,000,000 .. 2,000,0000%00:00 (00:00)
113 Brothers in Arms: Road to Hill 30 Mar 15, 2005 $9.99N/A (N/A/87%)100,000 .. 200,0000%00:00 (00:00)
114 Total War: MEDIEVAL II – Definitive Edition Nov 15, 2006 $24.99N/A (N/A)2,000,000 .. 5,000,0000%00:00 (00:00)
115 Command & Conquer: Red Alert 3 Oct 28, 2008 $19.99N/A (N/A/82%)500,000 .. 1,000,0004.55%12:59 (08:39)
116 Rome: Total War - Collection Aug 28, 2007 $12.99N/A (N/A/92%)1,000,000 .. 2,000,0003.17%04:03 (02:08)
117 Company of Heroes: Tales of Valor Apr 8, 2009 $19.99N/A (N/A/70%)1,000,000 .. 2,000,0000%00:00 (00:00)
118 Supreme Commander: Forged Alliance Sep 28, 2011 $12.99N/A (N/A/81%)500,000 .. 1,000,0005%00:03 (00:02)
119 Resident Evil 5 Sep 15, 2009 $19.99N/A (N/A/86%)1,000,000 .. 2,000,0001.18%03:37 (01:12)
120 King Lucas Dec 1, 2016 $4.99N/A (N/A)0 .. 20,0000%00:00 (00:00)
121 The Surge May 15, 2017 $19.99N/A (N/A/72%)1,000,000 .. 2,000,0000%00:00 (00:00)
122 Endless Space 2 - Digital Deluxe Edition May 18, 2017 $39.99N/A (N/A)200,000 .. 500,0002.33%05:02 (01:40)
123 STASIS Aug 31, 2015 $9.99N/A (N/A/79%)100,000 .. 200,0000%00:00 (00:00)
124 Call of Duty: Modern Warfare Remastered Jul 27, 2017 $39.99N/A (N/A)200,000 .. 500,0000%00:00 (00:00)
125 Dead Island: Riptide Definitive Edition May 31, 2016 $19.99N/A (N/A)200,000 .. 500,0000%00:00 (00:00)
126 Hearts of Iron IV Jun 6, 2016 $39.99N/A (N/A/83%)2,000,000 .. 5,000,00022.05%11:00 (06:32)
127 Firewatch Feb 9, 2016 $19.99N/A (N/A/81%)1,000,000 .. 2,000,0000%00:00 (00:00)
128 Ben and Ed Dec 8, 2015 $9.99N/A (N/A)100,000 .. 200,0000%00:00 (00:00)
129 Planetary Annihilation: TITANS Aug 18, 2015 $29.99N/A (N/A)500,000 .. 1,000,0002%13:15 (04:25)
130 Turok 2: Seeds of Evil Dec 10, 1998 $19.99N/A (N/A)100,000 .. 200,0000%00:00 (00:00)
131 Crossout Jul 26, 2017 FreeN/A (N/A)2,000,000 .. 5,000,0002.37%06:41 (00:44)
132 EARTH DEFENSE FORCE 4.1 The Shadow of New Despair Jul 18, 2016 $19.99N/A (N/A/79%)500,000 .. 1,000,0002.5%00:35 (00:11)
133 Darksiders II Deathinitive Edition Nov 5, 2015 $29.99N/A (N/A)2,000,000 .. 5,000,0000.78%63:18 (21:06)
134 Forts Apr 19, 2017 $14.99N/A (N/A/74%)200,000 .. 500,0002.17%01:13 (00:24)
135 Rise of the Tomb Raider Feb 9, 2016 $29.99N/A (N/A/86%)2,000,000 .. 5,000,0001.46%02:08 (01:23)
136 TY the Tasmanian Tiger Dec 12, 2016 $14.99N/A (N/A)50,000 .. 100,0000%00:00 (00:00)
137 Castlevania: Lords of Shadow 2 Feb 25, 2014 $39.99N/A (N/A/58%)200,000 .. 500,0000%00:00 (00:00)
138 StarDrive 2 Apr 9, 2015 $29.99N/A (N/A/70%)50,000 .. 100,0000%00:00 (00:00)
139 Middle-earth: Shadow of Mordor Sep 30, 2014 $19.99N/A (N/A/84%)2,000,000 .. 5,000,0000%00:00 (00:00)
140 Death Road to Canada Jul 21, 2016 $14.99N/A (N/A)200,000 .. 500,0004.35%00:02 (00:00)
141 Men of War: Assault Squad 2 May 15, 2014 $29.99N/A (N/A/68%)1,000,000 .. 2,000,0007.02%04:42 (04:12)
142 Enemy Front Jun 10, 2014 $19.99N/A (N/A/52%)200,000 .. 500,0000%00:00 (00:00)
143 Tropico 5 May 23, 2014 $19.99N/A (N/A/75%)1,000,000 .. 2,000,0000%00:00 (00:00)
144 Dominions 4: Thrones of Ascension Dec 5, 2013 $34.99N/A (N/A)50,000 .. 100,0000%00:00 (00:00)
145 Plague Inc: Evolved Feb 18, 2016 $14.99N/A (N/A)2,000,000 .. 5,000,0002.44%00:43 (00:47)
146 Dungeons 2 Apr 24, 2015 $19.99N/A (N/A/70%)1,000,000 .. 2,000,0000%00:00 (00:00)
147 Legends of Eisenwald Jul 2, 2015 $2.99N/A (N/A/71%)100,000 .. 200,0000%00:00 (00:00)
148 Blockstorm May 21, 2015 $4.99N/A (N/A)500,000 .. 1,000,0000%00:00 (00:00)
149 Unholy Heights Aug 16, 2013 $3.99N/A (N/A)100,000 .. 200,0000%00:00 (00:00)
150 One Finger Death Punch Mar 3, 2014 $4.99N/A (N/A)500,000 .. 1,000,0000%00:00 (00:00)
151 The Wolf Among Us Oct 11, 2013 $14.99N/A (N/A/85%)1,000,000 .. 2,000,0000%00:00 (00:00)
152 Age of Mythology: Extended Edition May 8, 2014 $29.99N/A (N/A/66%)1,000,000 .. 2,000,0000%00:00 (00:00)
153 Wargame: Red Dragon Apr 17, 2014 $29.99N/A (N/A/78%)1,000,000 .. 2,000,0003.92%01:13 (00:29)
154 This Is the Police Aug 2, 2016 $14.99N/A (N/A)500,000 .. 1,000,0001.92%07:40 (02:33)
155 RWBY: Grimm Eclipse Jul 5, 2016 $19.99N/A (N/A)500,000 .. 1,000,0000%00:00 (00:00)
156 Might and Magic: Heroes VII – Trial by Fire Aug 4, 2016 $29.99N/A (N/A)20,000 .. 50,0000%00:00 (00:00)
157 Samorost 3 Mar 24, 2016 $19.99N/A (N/A/80%)200,000 .. 500,0000%00:00 (00:00)
158 Halo Wars: Definitive Edition Apr 20, 2017 $19.99N/A (N/A)200,000 .. 500,0000%00:00 (00:00)
159 River City Ransom: Underground Feb 27, 2017 $19.99N/A (N/A)100,000 .. 200,0000%00:00 (00:00)
160 Bayonetta Apr 11, 2017 $19.99N/A (N/A/90%)500,000 .. 1,000,0001.69%19:32 (06:30)
161 Project Pulsation Dec 15, 2015 $4.99N/A (N/A)50,000 .. 100,0000%00:00 (00:00)
162 Darksiders Warmastered Edition Nov 29, 2016 $19.99N/A (N/A)1,000,000 .. 2,000,0000.57%45:29 (15:09)
163 Grow Up Aug 16, 2016 $9.99N/A (N/A/71%)100,000 .. 200,0000%00:00 (00:00)
164 Syberia 3 Apr 20, 2017 $29.99N/A (N/A/51%)100,000 .. 200,0000%00:00 (00:00)
165 Neon Chrome Apr 28, 2016 $14.99N/A (N/A/74%)200,000 .. 500,0000%00:00 (00:00)
166 Z.I.O.N. May 7, 2016 $4.99N/A (N/A)50,000 .. 100,0000%00:00 (00:00)
167 Lost Castle / 失落城堡 Aug 31, 2016 $9.99N/A (N/A)2,000,000 .. 5,000,0003.57%00:25 (00:21)
168 Home Behind Jun 2, 2016 $5.99N/A (N/A)200,000 .. 500,0005.26%00:18 (00:06)
169 Dead6hot Feb 1, 2016 $0.99N/A (N/A)200,000 .. 500,0000%00:00 (00:00)
170 Purgatory Jun 22, 2016 $0.99N/A (N/A)50,000 .. 100,0000%00:00 (00:00)
171 Panzer Corps Gold Jul 10, 2011 $29.99N/A (N/A/80%)100,000 .. 200,0000%00:00 (00:00)
172 Incoming Forces Sep 24, 2002 $2.99N/A (N/A/67%)100,000 .. 200,0000%00:00 (00:00)
173 XCOM 2 Feb 4, 2016 $59.99N/A (N/A/88%)2,000,000 .. 5,000,0003.36%10:26 (13:03)
174 Rise of Nations: Extended Edition Jun 12, 2014 $19.99N/A (N/A/89%)1,000,000 .. 2,000,0000%00:00 (00:00)
175 RUNNING WITH RIFLES Apr 2, 2015 $14.99N/A (N/A/78%)500,000 .. 1,000,0000%00:00 (00:00)
176 Mini Metro Nov 6, 2015 $9.99N/A (N/A/77%)500,000 .. 1,000,0000%00:00 (00:00)
177 Offworld Trading Company Apr 28, 2016 $29.99N/A (N/A/78%)500,000 .. 1,000,0000%00:00 (00:00)
178 Sid Meier’s Civilization VI Oct 20, 2016 $59.99N/A (N/A/88%)5,000,000 .. 10,000,0008.19%07:05 (05:23)
179 Depth Nov 3, 2014 $19.99N/A (N/A/65%)1,000,000 .. 2,000,0000%00:00 (00:00)
180 Endless Legend - Emperor Edition Sep 18, 2014 $29.99N/A (N/A/82%)1,000,000 .. 2,000,0002.78%09:52 (06:34)
181 Creeper World 3: Arc Eternal Mar 27, 2014 $14.99N/A (N/A)200,000 .. 500,0000%00:00 (00:00)
182 My Lands: Black Gem Hunting Sep 16, 2014 FreeN/A (N/A)500,000 .. 1,000,0000%00:00 (00:00)
183 Homeworld: Deserts of Kharak Jan 20, 2016 $49.99N/A (N/A/79%)200,000 .. 500,0000%00:00 (00:00)
184 Grey Goo Jan 23, 2015 $29.99N/A (N/A/77%)200,000 .. 500,0000%00:00 (00:00)
185 Splatter - Zombiecalypse Now Jun 4, 2014 $6.99N/A (N/A)200,000 .. 500,0000%00:00 (00:00)
186 Call of Duty: Infinite Warfare Nov 3, 2016 $59.99N/A (N/A/73%)500,000 .. 1,000,0000%00:00 (00:00)
187 Sid Meier's Starships Mar 12, 2015 $14.99N/A (N/A/64%)200,000 .. 500,0000%00:00 (00:00)
188 Worms Reloaded Aug 26, 2010 $19.99N/A (N/A/79%)500,000 .. 1,000,0007.41%01:26 (01:49)
189 Stronghold Crusader HD Oct 21, 2013 $9.99N/A (N/A/78%)1,000,000 .. 2,000,0002.13%00:30 (00:10)
190 Medal of Honor: Airborne Sep 4, 2007 $9.99N/A (N/A/78%)200,000 .. 500,0000%00:00 (00:00)
191 Stronghold Legends: Steam Edition Oct 27, 2009 $14.99N/A (N/A)200,000 .. 500,0005.88%00:19 (00:06)
192 STAR WARS Empire at War - Gold Pack Feb 16, 2006 $19.99N/A (N/A)1,000,000 .. 2,000,0001.49%02:35 (00:51)
193 Call of Duty: Black Ops Nov 9, 2010 $39.99N/A (N/A/81%)2,000,000 .. 5,000,0000%00:00 (00:00)
194 Assassin's Creed 2 Deluxe Edition Mar 9, 2010 $19.99N/A (N/A/86%)2,000,000 .. 5,000,0002.15%01:19 (00:37)
195 Assassin’s Creed Brotherhood Mar 22, 2011 $19.99N/A (N/A/88%)1,000,000 .. 2,000,0000%00:00 (00:00)
196 Total War: NAPOLEON – Definitive Edition Feb 25, 2010 $24.99N/A (N/A/81%)1,000,000 .. 2,000,0004.92%07:34 (07:33)
197 Might & Magic: Heroes VI Oct 13, 2011 $19.99N/A (N/A/77%)500,000 .. 1,000,0000%00:00 (00:00)
198 Sniper: Ghost Warrior Jun 24, 2010 $7.99N/A (N/A/55%)500,000 .. 1,000,0000%00:00 (00:00)
199 Mafia II (Classic) Mar 22, 2011 $29.99N/A (N/A/77%)2,000,000 .. 5,000,0000.81%00:08 (00:02)
200 Batman: Arkham Asylum Game of the Year Edition Mar 26, 2010 $19.99N/A (N/A/91%)2,000,000 .. 5,000,0001.19%05:10 (03:26)
201 Darksiders Sep 23, 2010 $19.99N/A (N/A/83%)2,000,000 .. 5,000,0000%00:00 (00:00)
202 RIFT Oct 24, 2013 FreeN/A (N/A/84%)2,000,000 .. 5,000,0000%00:00 (00:00)
203 Homefront Mar 14, 2011 $19.99N/A (N/A/70%)2,000,000 .. 5,000,0000%00:00 (00:00)
204 Stronghold 2: Steam Edition Coming Soon $14.99N/A (N/A)0 .. 20,0007.69%15:01 (05:00)
205 Dead Rising 4 Mar 14, 2017 $29.99N/A (N/A/74%)200,000 .. 500,0002.56%10:56 (03:38)
206 Quantum Break Sep 29, 2016 $39.99N/A (N/A/66%)1,000,000 .. 2,000,0000%00:00 (00:00)
207 Cavern Escape Extremely Hard game!!! Feb 20, 2017 $0.51N/A (N/A)50,000 .. 100,0000%00:00 (00:00)
208 RiME May 26, 2017 $29.99N/A (N/A/78%)200,000 .. 500,0000%00:00 (00:00)
209 Realpolitiks Feb 16, 2017 $14.99N/A (N/A/52%)20,000 .. 50,0000%00:00 (00:00)
210 Kingdom: New Lands Aug 9, 2016 $14.99N/A (N/A)200,000 .. 500,0000%00:00 (00:00)
211 ICEY Nov 17, 2016 $10.99N/A (N/A/84%)500,000 .. 1,000,0000%00:00 (00:00)
212 911 Operator Feb 24, 2017 $14.99N/A (N/A/68%)500,000 .. 1,000,0000%00:00 (00:00)
213 Kingdoms and Castles Jul 20, 2017 $9.99N/A (N/A)500,000 .. 1,000,0005.26%06:20 (02:12)
214 Antihero Jul 10, 2017 $14.99N/A (N/A/81%)50,000 .. 100,0000%00:00 (00:00)
215 Rento Fortune: Online Dice Board Game (大富翁) Jul 14, 2017 $4.99N/A (N/A)200,000 .. 500,0000%00:00 (00:00)
216 Quern - Undying Thoughts Nov 28, 2016 $24.99N/A (N/A/83%)100,000 .. 200,0000%00:00 (00:00)
217 Caesar 3 May 30, 1999 $5.99N/A (N/A)200,000 .. 500,0000%00:00 (00:00)
218 Operation: New Earth Dec 14, 2016 N/AN/A (N/A)100,000 .. 200,0000%00:00 (00:00)

Tags over time:

Access restricted.

This feature is only available to users with special access rights. Sorry.

If you want to proceed, you need to register or log in first and then back Steam Spy on Patreon. Look for Indie or Pro pledge.

Don't forget to use the same email as on Steam Spy!

If you've recently backed Steam Spy on Patreon, please note, that it might take around 15 minutes for your access rights to sync. In most cases you'll need to re-login on Steam Spy too.

Owners of this game also own:

Access restricted.

This feature is only available to users with special access rights. Sorry.

If you want to proceed, you need to register or log in first and then back Steam Spy on Patreon. Look for Indie or Pro pledge.

Don't forget to use the same email as on Steam Spy!

If you've recently backed Steam Spy on Patreon, please note, that it might take around 15 minutes for your access rights to sync. In most cases you'll need to re-login on Steam Spy too.

Playtime distribution:

Access restricted.

This feature is only available to users with special access rights. Sorry.

If you want to proceed, you need to register or log in first and then back Steam Spy on Patreon. Look for Indie or Pro pledge.

Don't forget to use the same email as on Steam Spy!

If you've recently backed Steam Spy on Patreon, please note, that it might take around 15 minutes for your access rights to sync. In most cases you'll need to re-login on Steam Spy too.

Playtime (2 weeks):

Access restricted.

This feature is only available to users with special access rights. Sorry.

If you want to proceed, you need to register or log in first and then back Steam Spy on Patreon. Look for Indie or Pro pledge.

Don't forget to use the same email as on Steam Spy!

If you've recently backed Steam Spy on Patreon, please note, that it might take around 15 minutes for your access rights to sync. In most cases you'll need to re-login on Steam Spy too.

User reviews:

Login required.

Please register or log in to see this information.